sensor_id;sensor_type;location;lat;lon;timestamp;P1;durP1;ratioP1;P2;durP2;ratioP2
31732;SDS011;18312;51.486;7.144;2023-06-14T00:02:16;8.95;;;5.25;;
31732;SDS011;18312;51.486;7.144;2023-06-14T00:04:45;8.30;;;4.88;;
31732;SDS011;18312;51.486;7.144;2023-06-14T00:07:13;11.80;;;5.10;;
31732;SDS011;18312;51.486;7.144;2023-06-14T00:09:41;8.38;;;5.18;;
31732;SDS011;18312;51.486;7.144;2023-06-14T00:12:08;6.93;;;4.70;;
31732;SDS011;18312;51.486;7.144;2023-06-14T00:14:35;8.13;;;5.38;;
31732;SDS011;18312;51.486;7.144;2023-06-14T00:17:01;7.68;;;4.75;;
31732;SDS011;18312;51.486;7.144;2023-06-14T00:19:28;12.32;;;5.22;;
31732;SDS011;18312;51.486;7.144;2023-06-14T00:21:59;10.18;;;5.30;;
31732;SDS011;18312;51.486;7.144;2023-06-14T00:24:25;5.90;;;4.07;;
31732;SDS011;18312;51.486;7.144;2023-06-14T00:26:52;9.82;;;5.30;;
31732;SDS011;18312;51.486;7.144;2023-06-14T00:29:20;10.10;;;5.78;;
31732;SDS011;18312;51.486;7.144;2023-06-14T00:31:46;8.93;;;5.63;;
31732;SDS011;18312;51.486;7.144;2023-06-14T00:34:13;11.15;;;5.10;;
31732;SDS011;18312;51.486;7.144;2023-06-14T00:36:40;6.88;;;4.88;;
31732;SDS011;18312;51.486;7.144;2023-06-14T00:39:08;7.90;;;4.68;;
31732;SDS011;18312;51.486;7.144;2023-06-14T00:41:35;8.10;;;5.03;;
31732;SDS011;18312;51.486;7.144;2023-06-14T00:44:02;5.93;;;4.78;;
31732;SDS011;18312;51.486;7.144;2023-06-14T00:46:29;8.27;;;4.85;;
31732;SDS011;18312;51.486;7.144;2023-06-14T00:48:56;7.97;;;4.60;;
31732;SDS011;18312;51.486;7.144;2023-06-14T00:51:24;7.22;;;4.65;;
31732;SDS011;18312;51.486;7.144;2023-06-14T00:53:51;7.57;;;4.50;;
31732;SDS011;18312;51.486;7.144;2023-06-14T00:56:19;7.22;;;4.53;;
31732;SDS011;18312;51.486;7.144;2023-06-14T00:58:46;5.82;;;3.90;;
31732;SDS011;18312;51.486;7.144;2023-06-14T01:01:14;7.78;;;4.32;;
31732;SDS011;18312;51.486;7.144;2023-06-14T01:03:41;8.50;;;4.93;;
31732;SDS011;18312;51.486;7.144;2023-06-14T01:06:11;6.50;;;4.80;;
31732;SDS011;18312;51.486;7.144;2023-06-14T01:08:53;8.80;;;4.32;;
31732;SDS011;18312;51.486;7.144;2023-06-14T01:11:30;6.25;;;4.40;;
31732;SDS011;18312;51.486;7.144;2023-06-14T01:14:04;6.25;;;4.43;;
31732;SDS011;18312;51.486;7.144;2023-06-14T01:16:32;6.43;;;4.18;;
31732;SDS011;18312;51.486;7.144;2023-06-14T01:19:01;8.13;;;4.22;;
31732;SDS011;18312;51.486;7.144;2023-06-14T01:21:28;8.90;;;4.07;;
31732;SDS011;18312;51.486;7.144;2023-06-14T01:23:56;8.32;;;5.00;;
31732;SDS011;18312;51.486;7.144;2023-06-14T01:26:23;11.48;;;4.38;;
31732;SDS011;18312;51.486;7.144;2023-06-14T01:28:51;7.30;;;3.75;;
31732;SDS011;18312;51.486;7.144;2023-06-14T01:31:21;7.05;;;4.18;;
31732;SDS011;18312;51.486;7.144;2023-06-14T01:33:49;9.23;;;4.15;;
31732;SDS011;18312;51.486;7.144;2023-06-14T01:36:17;7.90;;;4.93;;
31732;SDS011;18312;51.486;7.144;2023-06-14T01:38:45;7.38;;;4.55;;
31732;SDS011;18312;51.486;7.144;2023-06-14T01:41:14;10.00;;;4.10;;
31732;SDS011;18312;51.486;7.144;2023-06-14T01:43:42;8.38;;;4.18;;
31732;SDS011;18312;51.486;7.144;2023-06-14T01:46:09;10.18;;;4.55;;
31732;SDS011;18312;51.486;7.144;2023-06-14T01:48:36;7.18;;;4.10;;
31732;SDS011;18312;51.486;7.144;2023-06-14T01:51:03;8.68;;;4.78;;
31732;SDS011;18312;51.486;7.144;2023-06-14T01:53:30;6.15;;;4.00;;
31732;SDS011;18312;51.486;7.144;2023-06-14T01:55:57;7.63;;;3.85;;
31732;SDS011;18312;51.486;7.144;2023-06-14T01:58:25;7.93;;;3.92;;
31732;SDS011;18312;51.486;7.144;2023-06-14T02:00:52;6.78;;;4.07;;
31732;SDS011;18312;51.486;7.144;2023-06-14T02:03:20;6.70;;;4.15;;
31732;SDS011;18312;51.486;7.144;2023-06-14T02:05:48;8.27;;;4.57;;
31732;SDS011;18312;51.486;7.144;2023-06-14T02:08:15;5.78;;;3.70;;
31732;SDS011;18312;51.486;7.144;2023-06-14T02:10:41;5.63;;;3.67;;
31732;SDS011;18312;51.486;7.144;2023-06-14T02:13:08;8.45;;;4.32;;
31732;SDS011;18312;51.486;7.144;2023-06-14T02:15:36;8.70;;;4.85;;
31732;SDS011;18312;51.486;7.144;2023-06-14T02:18:03;5.97;;;3.88;;
31732;SDS011;18312;51.486;7.144;2023-06-14T02:20:30;10.55;;;4.13;;
31732;SDS011;18312;51.486;7.144;2023-06-14T02:22:57;10.07;;;4.13;;
31732;SDS011;18312;51.486;7.144;2023-06-14T02:25:25;11.40;;;4.28;;
31732;SDS011;18312;51.486;7.144;2023-06-14T02:27:52;9.65;;;3.97;;
31732;SDS011;18312;51.486;7.144;2023-06-14T02:30:19;9.02;;;4.40;;
31732;SDS011;18312;51.486;7.144;2023-06-14T02:32:47;5.40;;;3.40;;
31732;SDS011;18312;51.486;7.144;2023-06-14T02:35:16;7.68;;;3.88;;
31732;SDS011;18312;51.486;7.144;2023-06-14T02:37:42;6.35;;;4.00;;
31732;SDS011;18312;51.486;7.144;2023-06-14T02:40:09;8.48;;;3.88;;
31732;SDS011;18312;51.486;7.144;2023-06-14T02:42:36;7.93;;;3.63;;
31732;SDS011;18312;51.486;7.144;2023-06-14T02:45:04;5.60;;;3.97;;
31732;SDS011;18312;51.486;7.144;2023-06-14T02:47:32;9.67;;;4.47;;
31732;SDS011;18312;51.486;7.144;2023-06-14T02:50:00;7.78;;;4.25;;
31732;SDS011;18312;51.486;7.144;2023-06-14T02:52:27;9.05;;;4.05;;
31732;SDS011;18312;51.486;7.144;2023-06-14T02:54:54;5.43;;;3.92;;
31732;SDS011;18312;51.486;7.144;2023-06-14T02:57:21;5.95;;;3.78;;
31732;SDS011;18312;51.486;7.144;2023-06-14T02:59:48;6.18;;;3.90;;
31732;SDS011;18312;51.486;7.144;2023-06-14T03:02:15;8.57;;;4.07;;
31732;SDS011;18312;51.486;7.144;2023-06-14T03:04:41;7.60;;;3.70;;
31732;SDS011;18312;51.486;7.144;2023-06-14T03:07:10;13.52;;;3.78;;
31732;SDS011;18312;51.486;7.144;2023-06-14T03:09:38;6.53;;;3.55;;
31732;SDS011;18312;51.486;7.144;2023-06-14T03:12:05;5.68;;;4.00;;
31732;SDS011;18312;51.486;7.144;2023-06-14T03:14:34;7.57;;;3.72;;
31732;SDS011;18312;51.486;7.144;2023-06-14T03:17:01;4.18;;;2.90;;
31732;SDS011;18312;51.486;7.144;2023-06-14T03:19:29;10.90;;;3.55;;
31732;SDS011;18312;51.486;7.144;2023-06-14T03:21:56;7.68;;;3.83;;
31732;SDS011;18312;51.486;7.144;2023-06-14T03:24:24;5.57;;;3.35;;
31732;SDS011;18312;51.486;7.144;2023-06-14T03:26:52;4.55;;;3.17;;
31732;SDS011;18312;51.486;7.144;2023-06-14T03:29:19;8.10;;;3.22;;
31732;SDS011;18312;51.486;7.144;2023-06-14T03:31:56;7.18;;;3.08;;
31732;SDS011;18312;51.486;7.144;2023-06-14T03:34:24;7.60;;;3.55;;
31732;SDS011;18312;51.486;7.144;2023-06-14T03:36:50;7.05;;;3.45;;
31732;SDS011;18312;51.486;7.144;2023-06-14T03:39:17;6.53;;;2.97;;
31732;SDS011;18312;51.486;7.144;2023-06-14T03:41:45;10.57;;;3.65;;
31732;SDS011;18312;51.486;7.144;2023-06-14T03:44:13;7.63;;;3.35;;
31732;SDS011;18312;51.486;7.144;2023-06-14T03:46:41;6.43;;;3.13;;
31732;SDS011;18312;51.486;7.144;2023-06-14T03:49:08;7.68;;;3.45;;
31732;SDS011;18312;51.486;7.144;2023-06-14T03:51:35;6.53;;;2.97;;
31732;SDS011;18312;51.486;7.144;2023-06-14T03:54:02;9.85;;;3.42;;
31732;SDS011;18312;51.486;7.144;2023-06-14T03:56:29;6.68;;;3.65;;
31732;SDS011;18312;51.486;7.144;2023-06-14T03:58:57;7.32;;;3.17;;
31732;SDS011;18312;51.486;7.144;2023-06-14T04:01:24;7.18;;;3.47;;
31732;SDS011;18312;51.486;7.144;2023-06-14T04:03:52;7.78;;;3.20;;
31732;SDS011;18312;51.486;7.144;2023-06-14T04:06:19;7.35;;;3.25;;
31732;SDS011;18312;51.486;7.144;2023-06-14T04:08:45;5.10;;;3.45;;
31732;SDS011;18312;51.486;7.144;2023-06-14T04:11:14;9.23;;;3.03;;
31732;SDS011;18312;51.486;7.144;2023-06-14T04:13:41;6.97;;;3.13;;
31732;SDS011;18312;51.486;7.144;2023-06-14T04:16:09;9.57;;;3.40;;
31732;SDS011;18312;51.486;7.144;2023-06-14T04:18:35;7.68;;;3.60;;
31732;SDS011;18312;51.486;7.144;2023-06-14T04:21:02;3.40;;;2.40;;
31732;SDS011;18312;51.486;7.144;2023-06-14T04:23:29;5.30;;;2.90;;
31732;SDS011;18312;51.486;7.144;2023-06-14T04:25:57;5.57;;;2.67;;
31732;SDS011;18312;51.486;7.144;2023-06-14T04:28:27;10.20;;;3.25;;
31732;SDS011;18312;51.486;7.144;2023-06-14T04:30:54;10.10;;;3.70;;
31732;SDS011;18312;51.486;7.144;2023-06-14T04:33:23;10.52;;;3.38;;
31732;SDS011;18312;51.486;7.144;2023-06-14T04:35:50;7.13;;;3.35;;
31732;SDS011;18312;51.486;7.144;2023-06-14T04:38:18;8.23;;;3.45;;
31732;SDS011;18312;51.486;7.144;2023-06-14T04:40:49;7.40;;;3.35;;
31732;SDS011;18312;51.486;7.144;2023-06-14T04:43:17;10.82;;;3.10;;
31732;SDS011;18312;51.486;7.144;2023-06-14T04:45:51;6.03;;;2.60;;
31732;SDS011;18312;51.486;7.144;2023-06-14T04:48:19;7.18;;;3.53;;
31732;SDS011;18312;51.486;7.144;2023-06-14T04:50:47;3.20;;;2.85;;
31732;SDS011;18312;51.486;7.144;2023-06-14T04:53:17;8.43;;;3.45;;
31732;SDS011;18312;51.486;7.144;2023-06-14T04:55:46;6.45;;;2.90;;
31732;SDS011;18312;51.486;7.144;2023-06-14T04:58:13;7.80;;;3.17;;
31732;SDS011;18312;51.486;7.144;2023-06-14T05:00:40;7.03;;;2.90;;
31732;SDS011;18312;51.486;7.144;2023-06-14T05:03:08;7.03;;;3.30;;
31732;SDS011;18312;51.486;7.144;2023-06-14T05:05:38;4.93;;;2.55;;
31732;SDS011;18312;51.486;7.144;2023-06-14T05:08:07;7.00;;;2.90;;
31732;SDS011;18312;51.486;7.144;2023-06-14T05:10:34;6.45;;;2.90;;
31732;SDS011;18312;51.486;7.144;2023-06-14T05:13:01;8.32;;;2.75;;
31732;SDS011;18312;51.486;7.144;2023-06-14T05:15:28;9.35;;;2.83;;
31732;SDS011;18312;51.486;7.144;2023-06-14T05:17:55;7.82;;;3.42;;
31732;SDS011;18312;51.486;7.144;2023-06-14T05:20:22;9.20;;;3.58;;
31732;SDS011;18312;51.486;7.144;2023-06-14T05:22:49;4.65;;;3.22;;
31732;SDS011;18312;51.486;7.144;2023-06-14T05:25:19;4.03;;;2.72;;
31732;SDS011;18312;51.486;7.144;2023-06-14T05:27:46;3.25;;;2.95;;
31732;SDS011;18312;51.486;7.144;2023-06-14T05:30:13;7.55;;;2.90;;
31732;SDS011;18312;51.486;7.144;2023-06-14T05:32:44;3.97;;;2.53;;
31732;SDS011;18312;51.486;7.144;2023-06-14T05:35:11;7.18;;;3.20;;
31732;SDS011;18312;51.486;7.144;2023-06-14T05:37:38;4.20;;;2.90;;
31732;SDS011;18312;51.486;7.144;2023-06-14T05:40:05;5.28;;;2.42;;
31732;SDS011;18312;51.486;7.144;2023-06-14T05:42:35;4.57;;;2.67;;
31732;SDS011;18312;51.486;7.144;2023-06-14T05:45:02;3.90;;;2.60;;
31732;SDS011;18312;51.486;7.144;2023-06-14T05:47:29;3.53;;;2.28;;
31732;SDS011;18312;51.486;7.144;2023-06-14T05:49:56;5.55;;;2.67;;
31732;SDS011;18312;51.486;7.144;2023-06-14T05:52:22;7.55;;;3.42;;
31732;SDS011;18312;51.486;7.144;2023-06-14T05:54:50;4.78;;;2.25;;
31732;SDS011;18312;51.486;7.144;2023-06-14T05:57:18;8.10;;;2.95;;
31732;SDS011;18312;51.486;7.144;2023-06-14T05:59:45;6.95;;;2.63;;
31732;SDS011;18312;51.486;7.144;2023-06-14T06:02:12;5.40;;;2.45;;
31732;SDS011;18312;51.486;7.144;2023-06-14T06:04:39;5.78;;;2.78;;
31732;SDS011;18312;51.486;7.144;2023-06-14T06:07:06;4.35;;;2.30;;
31732;SDS011;18312;51.486;7.144;2023-06-14T06:09:33;3.88;;;2.35;;
31732;SDS011;18312;51.486;7.144;2023-06-14T06:11:59;5.88;;;2.33;;
31732;SDS011;18312;51.486;7.144;2023-06-14T06:14:26;11.65;;;2.47;;
31732;SDS011;18312;51.486;7.144;2023-06-14T06:16:54;5.63;;;2.42;;
31732;SDS011;18312;51.486;7.144;2023-06-14T06:19:21;5.28;;;2.60;;
31732;SDS011;18312;51.486;7.144;2023-06-14T06:21:47;4.15;;;2.22;;
31732;SDS011;18312;51.486;7.144;2023-06-14T06:24:14;7.13;;;2.88;;
31732;SDS011;18312;51.486;7.144;2023-06-14T06:26:41;4.03;;;2.05;;
31732;SDS011;18312;51.486;7.144;2023-06-14T06:29:08;4.22;;;2.15;;
31732;SDS011;18312;51.486;7.144;2023-06-14T06:31:35;2.22;;;1.40;;
31732;SDS011;18312;51.486;7.144;2023-06-14T06:34:03;2.50;;;1.73;;
31732;SDS011;18312;51.486;7.144;2023-06-14T06:36:29;4.75;;;1.33;;
31732;SDS011;18312;51.486;7.144;2023-06-14T06:38:56;5.45;;;1.73;;
31732;SDS011;18312;51.486;7.144;2023-06-14T06:41:23;5.28;;;2.00;;
31732;SDS011;18312;51.486;7.144;2023-06-14T06:43:49;2.55;;;1.55;;
31732;SDS011;18312;51.486;7.144;2023-06-14T06:46:16;6.25;;;1.42;;
31732;SDS011;18312;51.486;7.144;2023-06-14T06:48:43;5.70;;;1.98;;
31732;SDS011;18312;51.486;7.144;2023-06-14T06:51:12;2.22;;;1.58;;
31732;SDS011;18312;51.486;7.144;2023-06-14T06:53:41;3.25;;;2.10;;
31732;SDS011;18312;51.486;7.144;2023-06-14T06:56:09;7.68;;;1.92;;
31732;SDS011;18312;51.486;7.144;2023-06-14T06:58:35;4.43;;;1.80;;
31732;SDS011;18312;51.486;7.144;2023-06-14T07:01:02;2.88;;;1.70;;
31732;SDS011;18312;51.486;7.144;2023-06-14T07:03:28;2.63;;;2.10;;
31732;SDS011;18312;51.486;7.144;2023-06-14T07:05:55;13.90;;;1.83;;
31732;SDS011;18312;51.486;7.144;2023-06-14T07:08:23;5.22;;;2.15;;
31732;SDS011;18312;51.486;7.144;2023-06-14T07:10:50;6.85;;;1.95;;
31732;SDS011;18312;51.486;7.144;2023-06-14T07:13:16;7.15;;;2.08;;
31732;SDS011;18312;51.486;7.144;2023-06-14T07:15:44;4.82;;;1.50;;
31732;SDS011;18312;51.486;7.144;2023-06-14T07:18:11;4.15;;;1.73;;
31732;SDS011;18312;51.486;7.144;2023-06-14T07:20:38;3.22;;;1.40;;
31732;SDS011;18312;51.486;7.144;2023-06-14T07:23:05;5.95;;;2.08;;
31732;SDS011;18312;51.486;7.144;2023-06-14T07:25:33;3.13;;;1.63;;
31732;SDS011;18312;51.486;7.144;2023-06-14T07:28:00;4.15;;;1.75;;
31732;SDS011;18312;51.486;7.144;2023-06-14T07:30:27;6.80;;;1.52;;
31732;SDS011;18312;51.486;7.144;2023-06-14T07:32:55;4.95;;;1.50;;
31732;SDS011;18312;51.486;7.144;2023-06-14T07:35:21;3.08;;;1.80;;
31732;SDS011;18312;51.486;7.144;2023-06-14T07:37:48;2.95;;;1.40;;
31732;SDS011;18312;51.486;7.144;2023-06-14T07:40:15;2.85;;;1.65;;
31732;SDS011;18312;51.486;7.144;2023-06-14T07:42:43;4.82;;;1.88;;
31732;SDS011;18312;51.486;7.144;2023-06-14T07:45:09;1.98;;;1.35;;
31732;SDS011;18312;51.486;7.144;2023-06-14T07:47:38;5.68;;;1.67;;
31732;SDS011;18312;51.486;7.144;2023-06-14T07:50:04;2.72;;;1.30;;
31732;SDS011;18312;51.486;7.144;2023-06-14T07:52:32;3.28;;;1.00;;
31732;SDS011;18312;51.486;7.144;2023-06-14T07:54:58;3.83;;;1.30;;
31732;SDS011;18312;51.486;7.144;2023-06-14T07:57:25;2.67;;;1.40;;
31732;SDS011;18312;51.486;7.144;2023-06-14T07:59:53;2.88;;;1.33;;
31732;SDS011;18312;51.486;7.144;2023-06-14T08:02:20;2.35;;;1.48;;
31732;SDS011;18312;51.486;7.144;2023-06-14T08:04:46;2.63;;;2.08;;
31732;SDS011;18312;51.486;7.144;2023-06-14T08:07:13;3.50;;;1.48;;
31732;SDS011;18312;51.486;7.144;2023-06-14T08:09:40;3.10;;;1.17;;
31732;SDS011;18312;51.486;7.144;2023-06-14T08:12:07;1.92;;;1.55;;
31732;SDS011;18312;51.486;7.144;2023-06-14T08:14:35;1.88;;;1.40;;
31732;SDS011;18312;51.486;7.144;2023-06-14T08:17:03;3.97;;;1.40;;
31732;SDS011;18312;51.486;7.144;2023-06-14T08:19:30;2.35;;;1.63;;
31732;SDS011;18312;51.486;7.144;2023-06-14T08:21:57;2.60;;;1.30;;
31732;SDS011;18312;51.486;7.144;2023-06-14T08:24:24;1.60;;;1.50;;
31732;SDS011;18312;51.486;7.144;2023-06-14T08:26:52;4.85;;;1.40;;
31732;SDS011;18312;51.486;7.144;2023-06-14T08:29:18;1.63;;;1.13;;
31732;SDS011;18312;51.486;7.144;2023-06-14T08:31:46;4.70;;;1.60;;
31732;SDS011;18312;51.486;7.144;2023-06-14T08:34:14;2.95;;;1.33;;
31732;SDS011;18312;51.486;7.144;2023-06-14T08:36:41;3.15;;;1.67;;
31732;SDS011;18312;51.486;7.144;2023-06-14T08:39:07;5.32;;;1.92;;
31732;SDS011;18312;51.486;7.144;2023-06-14T08:41:35;3.83;;;1.40;;
31732;SDS011;18312;51.486;7.144;2023-06-14T08:44:02;2.50;;;1.42;;
31732;SDS011;18312;51.486;7.144;2023-06-14T08:46:29;5.28;;;1.40;;
31732;SDS011;18312;51.486;7.144;2023-06-14T08:51:27;2.85;;;1.67;;
31732;SDS011;18312;51.486;7.144;2023-06-14T08:53:59;1.33;;;1.10;;
31732;SDS011;18312;51.486;7.144;2023-06-14T08:56:27;4.85;;;1.38;;
31732;SDS011;18312;51.486;7.144;2023-06-14T08:58:54;7.45;;;1.63;;
31732;SDS011;18312;51.486;7.144;2023-06-14T09:01:22;1.40;;;1.10;;
31732;SDS011;18312;51.486;7.144;2023-06-14T09:03:49;2.90;;;1.10;;
31732;SDS011;18312;51.486;7.144;2023-06-14T09:06:16;1.95;;;1.20;;
31732;SDS011;18312;51.486;7.144;2023-06-14T09:08:45;2.20;;;1.33;;
31732;SDS011;18312;51.486;7.144;2023-06-14T09:11:14;2.10;;;1.23;;
31732;SDS011;18312;51.486;7.144;2023-06-14T09:13:43;3.85;;;0.88;;
31732;SDS011;18312;51.486;7.144;2023-06-14T09:16:10;1.45;;;1.20;;
31732;SDS011;18312;51.486;7.144;2023-06-14T09:18:37;3.33;;;1.13;;
31732;SDS011;18312;51.486;7.144;2023-06-14T09:21:06;2.10;;;1.15;;
31732;SDS011;18312;51.486;7.144;2023-06-14T09:23:33;2.22;;;0.93;;
31732;SDS011;18312;51.486;7.144;2023-06-14T09:26:07;8.18;;;1.00;;
31732;SDS011;18312;51.486;7.144;2023-06-14T09:28:34;2.15;;;0.70;;
31732;SDS011;18312;51.486;7.144;2023-06-14T09:31:01;1.95;;;0.90;;
31732;SDS011;18312;51.486;7.144;2023-06-14T09:33:28;2.33;;;0.95;;
31732;SDS011;18312;51.486;7.144;2023-06-14T09:35:57;2.50;;;1.13;;
31732;SDS011;18312;51.486;7.144;2023-06-14T09:38:24;1.15;;;0.90;;
31732;SDS011;18312;51.486;7.144;2023-06-14T09:40:51;3.60;;;0.70;;
31732;SDS011;18312;51.486;7.144;2023-06-14T09:43:19;3.15;;;0.70;;
31732;SDS011;18312;51.486;7.144;2023-06-14T09:45:46;0.80;;;0.70;;
31732;SDS011;18312;51.486;7.144;2023-06-14T09:48:14;1.17;;;0.77;;
31732;SDS011;18312;51.486;7.144;2023-06-14T09:50:43;2.80;;;0.80;;
31732;SDS011;18312;51.486;7.144;2023-06-14T09:53:11;2.45;;;0.68;;
31732;SDS011;18312;51.486;7.144;2023-06-14T09:55:38;1.75;;;0.65;;
31732;SDS011;18312;51.486;7.144;2023-06-14T09:58:07;1.27;;;0.52;;
31732;SDS011;18312;51.486;7.144;2023-06-14T10:00:39;2.50;;;0.65;;
31732;SDS011;18312;51.486;7.144;2023-06-14T10:03:14;2.55;;;0.50;;
31732;SDS011;18312;51.486;7.144;2023-06-14T10:05:45;1.00;;;0.57;;
31732;SDS011;18312;51.486;7.144;2023-06-14T10:08:14;0.60;;;0.50;;
31732;SDS011;18312;51.486;7.144;2023-06-14T10:10:42;2.33;;;0.50;;
31732;SDS011;18312;51.486;7.144;2023-06-14T10:13:10;1.58;;;0.70;;
31732;SDS011;18312;51.486;7.144;2023-06-14T10:15:41;1.15;;;0.50;;
31732;SDS011;18312;51.486;7.144;2023-06-14T10:18:16;1.00;;;0.55;;
31732;SDS011;18312;51.486;7.144;2023-06-14T10:20:50;2.28;;;0.60;;
31732;SDS011;18312;51.486;7.144;2023-06-14T10:23:22;4.78;;;0.70;;
31732;SDS011;18312;51.486;7.144;2023-06-14T10:25:50;0.90;;;0.60;;
31732;SDS011;18312;51.486;7.144;2023-06-14T10:28:21;4.50;;;1.05;;
31732;SDS011;18312;51.486;7.144;2023-06-14T10:31:06;1.25;;;0.80;;
31732;SDS011;18312;51.486;7.144;2023-06-14T10:33:34;0.55;;;0.50;;
31732;SDS011;18312;51.486;7.144;2023-06-14T10:38:58;0.82;;;0.70;;
31732;SDS011;18312;51.486;7.144;2023-06-14T10:41:34;2.22;;;0.68;;
31732;SDS011;18312;51.486;7.144;2023-06-14T10:47:00;1.75;;;0.70;;
31732;SDS011;18312;51.486;7.144;2023-06-14T10:49:36;2.77;;;1.20;;
31732;SDS011;18312;51.486;7.144;2023-06-14T10:52:07;2.58;;;0.70;;
31732;SDS011;18312;51.486;7.144;2023-06-14T10:54:55;6.43;;;1.00;;
31732;SDS011;18312;51.486;7.144;2023-06-14T10:57:22;3.80;;;1.02;;
31732;SDS011;18312;51.486;7.144;2023-06-14T10:59:49;1.67;;;0.90;;
31732;SDS011;18312;51.486;7.144;2023-06-14T11:02:26;1.20;;;0.73;;
31732;SDS011;18312;51.486;7.144;2023-06-14T11:05:13;2.72;;;0.90;;
31732;SDS011;18312;51.486;7.144;2023-06-14T11:07:43;6.40;;;0.80;;
31732;SDS011;18312;51.486;7.144;2023-06-14T11:12:52;2.60;;;0.73;;
31732;SDS011;18312;51.486;7.144;2023-06-14T11:15:27;11.13;;;1.00;;
31732;SDS011;18312;51.486;7.144;2023-06-14T11:17:55;5.80;;;1.10;;
31732;SDS011;18312;51.486;7.144;2023-06-14T11:20:24;3.45;;;1.15;;
31732;SDS011;18312;51.486;7.144;2023-06-14T11:22:53;2.85;;;0.73;;
31732;SDS011;18312;51.486;7.144;2023-06-14T11:25:20;1.10;;;0.63;;
31732;SDS011;18312;51.486;7.144;2023-06-14T11:27:48;4.53;;;0.75;;
31732;SDS011;18312;51.486;7.144;2023-06-14T11:30:16;9.45;;;0.93;;
31732;SDS011;18312;51.486;7.144;2023-06-14T11:32:45;1.73;;;0.80;;
31732;SDS011;18312;51.486;7.144;2023-06-14T11:35:14;1.45;;;1.08;;
31732;SDS011;18312;51.486;7.144;2023-06-14T11:37:41;7.00;;;1.60;;
31732;SDS011;18312;51.486;7.144;2023-06-14T11:40:09;2.30;;;0.82;;
31732;SDS011;18312;51.486;7.144;2023-06-14T11:42:38;3.72;;;1.20;;
31732;SDS011;18312;51.486;7.144;2023-06-14T11:45:07;4.15;;;1.08;;
31732;SDS011;18312;51.486;7.144;2023-06-14T11:47:35;6.57;;;1.13;;
31732;SDS011;18312;51.486;7.144;2023-06-14T11:50:04;3.90;;;1.10;;
31732;SDS011;18312;51.486;7.144;2023-06-14T11:52:35;3.78;;;1.00;;
31732;SDS011;18312;51.486;7.144;2023-06-14T11:55:03;4.57;;;1.38;;
31732;SDS011;18312;51.486;7.144;2023-06-14T11:57:33;3.42;;;1.45;;
31732;SDS011;18312;51.486;7.144;2023-06-14T12:02:33;6.00;;;1.33;;
31732;SDS011;18312;51.486;7.144;2023-06-14T12:07:32;2.05;;;1.10;;
31732;SDS011;18312;51.486;7.144;2023-06-14T12:10:13;3.30;;;1.30;;
31732;SDS011;18312;51.486;7.144;2023-06-14T12:12:40;2.63;;;1.40;;
31732;SDS011;18312;51.486;7.144;2023-06-14T12:15:08;7.60;;;1.60;;
31732;SDS011;18312;51.486;7.144;2023-06-14T12:17:37;3.17;;;1.38;;
31732;SDS011;18312;51.486;7.144;2023-06-14T12:20:07;4.10;;;1.60;;
31732;SDS011;18312;51.486;7.144;2023-06-14T12:22:38;1.40;;;1.27;;
31732;SDS011;18312;51.486;7.144;2023-06-14T12:25:06;1.30;;;1.20;;
31732;SDS011;18312;51.486;7.144;2023-06-14T12:27:36;1.77;;;1.67;;
31732;SDS011;18312;51.486;7.144;2023-06-14T12:30:06;7.10;;;1.75;;
31732;SDS011;18312;51.486;7.144;2023-06-14T12:32:34;2.25;;;1.40;;
31732;SDS011;18312;51.486;7.144;2023-06-14T12:35:02;2.60;;;1.33;;
31732;SDS011;18312;51.486;7.144;2023-06-14T12:37:28;1.80;;;1.42;;
31732;SDS011;18312;51.486;7.144;2023-06-14T12:39:55;8.63;;;1.60;;
31732;SDS011;18312;51.486;7.144;2023-06-14T12:42:22;4.88;;;1.27;;
31732;SDS011;18312;51.486;7.144;2023-06-14T12:44:50;2.22;;;1.13;;
31732;SDS011;18312;51.486;7.144;2023-06-14T12:47:16;2.10;;;1.45;;
31732;SDS011;18312;51.486;7.144;2023-06-14T12:49:43;5.38;;;1.50;;
31732;SDS011;18312;51.486;7.144;2023-06-14T12:52:10;2.75;;;1.00;;
31732;SDS011;18312;51.486;7.144;2023-06-14T12:54:37;5.85;;;1.40;;
31732;SDS011;18312;51.486;7.144;2023-06-14T12:57:04;5.75;;;1.52;;
31732;SDS011;18312;51.486;7.144;2023-06-14T12:59:31;2.35;;;1.50;;
31732;SDS011;18312;51.486;7.144;2023-06-14T13:02:01;4.15;;;2.17;;
31732;SDS011;18312;51.486;7.144;2023-06-14T13:04:37;1.80;;;1.38;;
31732;SDS011;18312;51.486;7.144;2023-06-14T13:07:04;1.40;;;1.20;;
31732;SDS011;18312;51.486;7.144;2023-06-14T13:09:31;3.63;;;1.30;;
31732;SDS011;18312;51.486;7.144;2023-06-14T13:11:58;4.32;;;1.30;;
31732;SDS011;18312;51.486;7.144;2023-06-14T13:14:25;5.53;;;1.10;;
31732;SDS011;18312;51.486;7.144;2023-06-14T13:16:51;6.88;;;1.40;;
31732;SDS011;18312;51.486;7.144;2023-06-14T13:19:19;1.33;;;1.15;;
31732;SDS011;18312;51.486;7.144;2023-06-14T13:21:46;1.30;;;1.20;;
31732;SDS011;18312;51.486;7.144;2023-06-14T13:24:13;4.47;;;1.15;;
31732;SDS011;18312;51.486;7.144;2023-06-14T13:26:40;1.52;;;1.05;;
31732;SDS011;18312;51.486;7.144;2023-06-14T13:29:07;3.58;;;1.50;;
31732;SDS011;18312;51.486;7.144;2023-06-14T13:31:33;1.75;;;1.38;;
31732;SDS011;18312;51.486;7.144;2023-06-14T13:34:00;4.35;;;1.50;;
31732;SDS011;18312;51.486;7.144;2023-06-14T13:36:28;2.67;;;1.48;;
31732;SDS011;18312;51.486;7.144;2023-06-14T13:38:55;1.48;;;1.10;;
31732;SDS011;18312;51.486;7.144;2023-06-14T13:41:23;2.90;;;1.40;;
31732;SDS011;18312;51.486;7.144;2023-06-14T13:43:56;2.60;;;1.30;;
31732;SDS011;18312;51.486;7.144;2023-06-14T13:46:23;1.77;;;1.30;;
31732;SDS011;18312;51.486;7.144;2023-06-14T13:48:50;2.60;;;1.13;;
31732;SDS011;18312;51.486;7.144;2023-06-14T13:51:17;1.30;;;1.10;;
31732;SDS011;18312;51.486;7.144;2023-06-14T13:53:47;2.55;;;1.42;;
31732;SDS011;18312;51.486;7.144;2023-06-14T13:56:14;5.75;;;1.65;;
31732;SDS011;18312;51.486;7.144;2023-06-14T13:58:41;3.50;;;1.52;;
31732;SDS011;18312;51.486;7.144;2023-06-14T14:01:08;1.55;;;1.20;;
31732;SDS011;18312;51.486;7.144;2023-06-14T14:03:35;2.97;;;1.40;;
31732;SDS011;18312;51.486;7.144;2023-06-14T14:06:02;2.50;;;1.23;;
31732;SDS011;18312;51.486;7.144;2023-06-14T14:08:30;4.25;;;1.65;;
31732;SDS011;18312;51.486;7.144;2023-06-14T14:10:58;4.90;;;1.48;;
31732;SDS011;18312;51.486;7.144;2023-06-14T14:13:25;3.47;;;1.27;;
31732;SDS011;18312;51.486;7.144;2023-06-14T14:15:52;8.40;;;1.67;;
31732;SDS011;18312;51.486;7.144;2023-06-14T14:18:19;2.22;;;1.38;;
31732;SDS011;18312;51.486;7.144;2023-06-14T14:20:46;1.88;;;1.45;;
31732;SDS011;18312;51.486;7.144;2023-06-14T14:23:14;1.52;;;1.30;;
31732;SDS011;18312;51.486;7.144;2023-06-14T14:25:40;4.70;;;1.42;;
31732;SDS011;18312;51.486;7.144;2023-06-14T14:28:08;2.08;;;1.33;;
31732;SDS011;18312;51.486;7.144;2023-06-14T14:30:36;2.15;;;1.38;;
31732;SDS011;18312;51.486;7.144;2023-06-14T14:33:04;1.25;;;1.15;;
31732;SDS011;18312;51.486;7.144;2023-06-14T14:35:31;4.50;;;1.60;;
31732;SDS011;18312;51.486;7.144;2023-06-14T14:37:58;1.90;;;1.33;;
31732;SDS011;18312;51.486;7.144;2023-06-14T14:40:24;3.95;;;1.58;;
31732;SDS011;18312;51.486;7.144;2023-06-14T14:42:51;1.42;;;1.08;;
31732;SDS011;18312;51.486;7.144;2023-06-14T14:45:19;3.17;;;1.45;;
31732;SDS011;18312;51.486;7.144;2023-06-14T14:47:46;2.08;;;1.25;;
31732;SDS011;18312;51.486;7.144;2023-06-14T14:50:13;2.05;;;1.48;;
31732;SDS011;18312;51.486;7.144;2023-06-14T14:52:40;2.08;;;1.20;;
31732;SDS011;18312;51.486;7.144;2023-06-14T14:55:07;3.67;;;1.83;;
31732;SDS011;18312;51.486;7.144;2023-06-14T14:57:34;5.95;;;2.70;;
31732;SDS011;18312;51.486;7.144;2023-06-14T15:00:01;3.28;;;1.70;;
31732;SDS011;18312;51.486;7.144;2023-06-14T15:02:30;4.03;;;1.98;;
31732;SDS011;18312;51.486;7.144;2023-06-14T15:04:56;1.40;;;1.27;;
31732;SDS011;18312;51.486;7.144;2023-06-14T15:07:25;7.85;;;1.65;;
31732;SDS011;18312;51.486;7.144;2023-06-14T15:09:52;3.60;;;1.60;;